sensor_id;sensor_type;location;lat;lon;timestamp;pressure;altitude;pressure_sealevel;temperature;humidity
57050;BME280;42935;50.966;16.992;2022-11-03T00:01:50;102320.61;;;4.69;100.00
57050;BME280;42935;50.966;16.992;2022-11-03T00:05:30;102324.34;;;4.65;100.00
57050;BME280;42935;50.966;16.992;2022-11-03T00:09:22;102323.73;;;4.65;100.00
57050;BME280;42935;50.966;16.992;2022-11-03T00:12:33;102324.93;;;4.58;100.00
57050;BME280;42935;50.966;16.992;2022-11-03T00:16:13;102324.05;;;4.34;100.00
57050;BME280;42935;50.966;16.992;2022-11-03T00:19:58;102326.62;;;4.00;100.00
57050;BME280;42935;50.966;16.992;2022-11-03T00:23:40;102318.19;;;4.12;100.00
57050;BME280;42935;50.966;16.992;2022-11-03T00:27:21;102324.62;;;4.09;100.00
57050;BME280;42935;50.966;16.992;2022-11-03T00:31:04;102319.83;;;3.97;100.00
57050;BME280;42935;50.966;16.992;2022-11-03T00:34:48;102323.11;;;3.91;100.00
57050;BME280;42935;50.966;16.992;2022-11-03T00:38:29;102315.77;;;3.82;100.00
57050;BME280;42935;50.966;16.992;2022-11-03T00:42:10;102302.16;;;3.70;100.00
57050;BME280;42935;50.966;16.992;2022-11-03T00:45:50;102278.70;;;3.69;100.00
57050;BME280;42935;50.966;16.992;2022-11-03T00:49:34;102312.44;;;3.87;100.00
57050;BME280;42935;50.966;16.992;2022-11-03T00:53:14;102297.02;;;3.61;100.00
57050;BME280;42935;50.966;16.992;2022-11-03T00:56:54;102319.54;;;3.69;100.00
57050;BME280;42935;50.966;16.992;2022-11-03T01:00:34;102320.63;;;3.63;100.00
57050;BME280;42935;50.966;16.992;2022-11-03T01:04:16;102319.76;;;3.58;100.00
57050;BME280;42935;50.966;16.992;2022-11-03T01:08:05;102317.90;;;3.55;100.00
57050;BME280;42935;50.966;16.992;2022-11-03T01:11:55;102318.95;;;3.43;100.00
57050;BME280;42935;50.966;16.992;2022-11-03T01:15:33;102321.90;;;3.36;100.00
57050;BME280;42935;50.966;16.992;2022-11-03T01:18:54;102321.47;;;3.32;100.00
57050;BME280;42935;50.966;16.992;2022-11-03T01:22:34;102321.23;;;3.10;100.00
57050;BME280;42935;50.966;16.992;2022-11-03T01:25:45;102322.94;;;2.92;100.00
57050;BME280;42935;50.966;16.992;2022-11-03T01:29:24;102315.08;;;2.68;100.00
57050;BME280;42935;50.966;16.992;2022-11-03T01:33:04;102315.86;;;2.81;100.00
57050;BME280;42935;50.966;16.992;2022-11-03T01:36:49;102316.66;;;2.84;100.00
57050;BME280;42935;50.966;16.992;2022-11-03T01:40:31;102322.30;;;3.04;100.00
57050;BME280;42935;50.966;16.992;2022-11-03T01:48:01;102312.33;;;2.85;100.00
57050;BME280;42935;50.966;16.992;2022-11-03T01:51:47;102304.37;;;2.73;100.00
57050;BME280;42935;50.966;16.992;2022-11-03T01:58:55;102260.59;;;2.46;100.00
57050;BME280;42935;50.966;16.992;2022-11-03T02:02:36;102302.13;;;2.74;100.00
57050;BME280;42935;50.966;16.992;2022-11-03T02:05:49;102300.23;;;2.76;100.00
57050;BME280;42935;50.966;16.992;2022-11-03T02:09:28;102296.30;;;2.38;100.00
57050;BME280;42935;50.966;16.992;2022-11-03T02:12:43;102284.62;;;2.23;100.00
57050;BME280;42935;50.966;16.992;2022-11-03T02:16:30;102288.69;;;2.46;100.00
57050;BME280;42935;50.966;16.992;2022-11-03T02:19:46;102287.89;;;2.52;100.00
57050;BME280;42935;50.966;16.992;2022-11-03T02:23:33;102266.39;;;2.50;100.00
57050;BME280;42935;50.966;16.992;2022-11-03T02:27:17;102275.84;;;2.58;100.00
57050;BME280;42935;50.966;16.992;2022-11-03T02:34:31;102252.48;;;2.52;100.00
57050;BME280;42935;50.966;16.992;2022-11-03T02:38:15;102264.39;;;2.50;100.00
57050;BME280;42935;50.966;16.992;2022-11-03T02:41:59;102260.65;;;2.49;100.00
57050;BME280;42935;50.966;16.992;2022-11-03T02:45:17;102268.33;;;2.47;100.00
57050;BME280;42935;50.966;16.992;2022-11-03T02:48:59;102267.35;;;2.30;100.00
57050;BME280;42935;50.966;16.992;2022-11-03T02:52:43;102263.12;;;2.34;100.00
57050;BME280;42935;50.966;16.992;2022-11-03T02:56:30;102264.24;;;2.19;100.00
57050;BME280;42935;50.966;16.992;2022-11-03T03:00:15;102247.20;;;2.14;100.00
57050;BME280;42935;50.966;16.992;2022-11-03T03:03:57;102257.31;;;2.20;100.00
57050;BME280;42935;50.966;16.992;2022-11-03T03:07:45;102258.15;;;2.09;100.00
57050;BME280;42935;50.966;16.992;2022-11-03T03:10:55;102257.13;;;2.16;100.00
57050;BME280;42935;50.966;16.992;2022-11-03T03:14:12;102211.73;;;1.69;100.00
57050;BME280;42935;50.966;16.992;2022-11-03T03:18:00;102240.41;;;1.82;100.00
57050;BME280;42935;50.966;16.992;2022-11-03T03:28:31;102235.55;;;1.67;100.00
57050;BME280;42935;50.966;16.992;2022-11-03T03:32:15;102231.05;;;1.48;100.00
57050;BME280;42935;50.966;16.992;2022-11-03T03:35:32;102234.85;;;1.74;100.00
57050;BME280;42935;50.966;16.992;2022-11-03T03:39:14;102235.46;;;1.76;100.00
57050;BME280;42935;50.966;16.992;2022-11-03T03:42:57;102236.30;;;1.70;100.00
57050;BME280;42935;50.966;16.992;2022-11-03T03:46:09;102232.99;;;1.74;100.00
57050;BME280;42935;50.966;16.992;2022-11-03T03:49:50;102230.11;;;1.63;100.00
57050;BME280;42935;50.966;16.992;2022-11-03T03:53:28;102183.23;;;1.42;100.00
57050;BME280;42935;50.966;16.992;2022-11-03T03:57:15;102219.51;;;1.53;100.00
57050;BME280;42935;50.966;16.992;2022-11-03T04:00:56;102219.79;;;1.69;100.00
57050;BME280;42935;50.966;16.992;2022-11-03T04:04:37;102165.31;;;1.31;100.00
57050;BME280;42935;50.966;16.992;2022-11-03T04:07:46;102219.34;;;1.60;100.00
57050;BME280;42935;50.966;16.992;2022-11-03T04:11:27;102214.81;;;1.66;100.00
57050;BME280;42935;50.966;16.992;2022-11-03T04:15:17;102206.60;;;1.49;100.00
57050;BME280;42935;50.966;16.992;2022-11-03T04:19:11;102210.70;;;1.65;100.00
57050;BME280;42935;50.966;16.992;2022-11-03T04:22:31;102210.37;;;1.71;100.00
57050;BME280;42935;50.966;16.992;2022-11-03T04:25:46;102211.50;;;1.70;100.00
57050;BME280;42935;50.966;16.992;2022-11-03T04:29:28;102206.19;;;1.74;100.00
57050;BME280;42935;50.966;16.992;2022-11-03T04:33:16;102206.43;;;1.78;100.00
57050;BME280;42935;50.966;16.992;2022-11-03T04:36:53;102195.13;;;1.72;100.00
57050;BME280;42935;50.966;16.992;2022-11-03T04:40:33;102200.64;;;1.76;100.00
57050;BME280;42935;50.966;16.992;2022-11-03T04:43:43;102187.86;;;1.71;100.00
57050;BME280;42935;50.966;16.992;2022-11-03T04:47:25;102192.73;;;1.64;100.00
57050;BME280;42935;50.966;16.992;2022-11-03T04:51:16;102193.19;;;1.70;100.00
57050;BME280;42935;50.966;16.992;2022-11-03T04:54:52;102191.24;;;1.76;100.00
57050;BME280;42935;50.966;16.992;2022-11-03T04:58:34;102188.10;;;1.68;100.00
57050;BME280;42935;50.966;16.992;2022-11-03T05:02:19;102178.73;;;1.57;100.00
57050;BME280;42935;50.966;16.992;2022-11-03T05:09:23;102180.00;;;1.68;100.00
57050;BME280;42935;50.966;16.992;2022-11-03T05:16:27;102172.10;;;1.59;100.00
57050;BME280;42935;50.966;16.992;2022-11-03T05:20:23;102164.20;;;1.50;100.00
57050;BME280;42935;50.966;16.992;2022-11-03T05:24:01;102160.81;;;1.41;100.00
57050;BME280;42935;50.966;16.992;2022-11-03T05:27:42;102158.33;;;1.51;100.00
57050;BME280;42935;50.966;16.992;2022-11-03T05:30:56;102155.72;;;1.52;100.00
57050;BME280;42935;50.966;16.992;2022-11-03T05:34:46;102150.41;;;1.55;100.00
57050;BME280;42935;50.966;16.992;2022-11-03T05:37:56;102153.84;;;1.59;100.00
57050;BME280;42935;50.966;16.992;2022-11-03T05:41:37;102150.99;;;1.45;100.00
57050;BME280;42935;50.966;16.992;2022-11-03T05:45:23;102150.69;;;1.48;100.00
57050;BME280;42935;50.966;16.992;2022-11-03T05:49:06;102148.68;;;1.49;100.00
57050;BME280;42935;50.966;16.992;2022-11-03T05:52:45;102129.13;;;1.35;100.00
57050;BME280;42935;50.966;16.992;2022-11-03T05:56:31;102143.90;;;1.44;100.00
57050;BME280;42935;50.966;16.992;2022-11-03T05:59:43;102140.88;;;1.44;100.00
57050;BME280;42935;50.966;16.992;2022-11-03T06:03:28;102131.80;;;1.38;100.00
57050;BME280;42935;50.966;16.992;2022-11-03T06:06:49;102137.39;;;1.49;100.00
57050;BME280;42935;50.966;16.992;2022-11-03T06:10:35;102105.09;;;1.11;100.00
57050;BME280;42935;50.966;16.992;2022-11-03T06:14:24;102135.75;;;1.27;100.00
57050;BME280;42935;50.966;16.992;2022-11-03T06:17:32;102149.66;;;1.40;100.00
57050;BME280;42935;50.966;16.992;2022-11-03T06:21:18;102148.74;;;1.44;100.00
57050;BME280;42935;50.966;16.992;2022-11-03T06:24:30;102151.75;;;1.56;100.00
57050;BME280;42935;50.966;16.992;2022-11-03T06:28:16;102115.74;;;1.19;100.00
57050;BME280;42935;50.966;16.992;2022-11-03T06:31:31;102150.91;;;1.61;100.00
57050;BME280;42935;50.966;16.992;2022-11-03T06:35:09;102154.18;;;1.63;100.00
57050;BME280;42935;50.966;16.992;2022-11-03T06:39:03;102128.56;;;1.39;100.00
57050;BME280;42935;50.966;16.992;2022-11-03T06:42:19;102159.27;;;1.73;100.00
57050;BME280;42935;50.966;16.992;2022-11-03T06:45:34;102154.97;;;1.76;100.00
57050;BME280;42935;50.966;16.992;2022-11-03T06:48:44;102153.97;;;1.85;100.00
57050;BME280;42935;50.966;16.992;2022-11-03T06:52:32;102140.52;;;1.89;100.00
57050;BME280;42935;50.966;16.992;2022-11-03T06:55:44;102149.23;;;2.07;100.00
57050;BME280;42935;50.966;16.992;2022-11-03T06:58:56;102146.30;;;2.20;100.00
57050;BME280;42935;50.966;16.992;2022-11-03T07:05:57;102151.82;;;2.60;100.00
57050;BME280;42935;50.966;16.992;2022-11-03T07:09:37;102109.39;;;2.58;100.00
57050;BME280;42935;50.966;16.992;2022-11-03T07:13:22;102140.34;;;2.91;100.00
57050;BME280;42935;50.966;16.992;2022-11-03T07:19:53;102144.12;;;3.31;100.00
57050;BME280;42935;50.966;16.992;2022-11-03T07:23:31;102141.07;;;3.44;100.00
57050;BME280;42935;50.966;16.992;2022-11-03T07:27:24;102138.14;;;3.67;100.00
57050;BME280;42935;50.966;16.992;2022-11-03T07:31:14;102139.23;;;3.82;100.00
57050;BME280;42935;50.966;16.992;2022-11-03T07:35:22;102130.66;;;3.88;100.00
57050;BME280;42935;50.966;16.992;2022-11-03T07:38:21;102096.38;;;3.83;100.00
57050;BME280;42935;50.966;16.992;2022-11-03T07:41:36;102119.66;;;4.00;100.00
57050;BME280;42935;50.966;16.992;2022-11-03T07:44:41;102117.80;;;4.14;100.00
57050;BME280;42935;50.966;16.992;2022-11-03T07:47:47;102113.98;;;4.15;100.00
57050;BME280;42935;50.966;16.992;2022-11-03T07:51:30;102112.17;;;4.36;100.00
57050;BME280;42935;50.966;16.992;2022-11-03T07:55:13;102087.98;;;4.51;100.00
57050;BME280;42935;50.966;16.992;2022-11-03T08:02:52;102093.50;;;5.18;100.00
57050;BME280;42935;50.966;16.992;2022-11-03T08:06:33;102088.74;;;5.46;100.00
57050;BME280;42935;50.966;16.992;2022-11-03T08:10:21;102085.74;;;5.72;100.00
57050;BME280;42935;50.966;16.992;2022-11-03T08:14:01;102055.86;;;5.81;100.00
57050;BME280;42935;50.966;16.992;2022-11-03T08:17:38;102065.54;;;6.13;100.00
57050;BME280;42935;50.966;16.992;2022-11-03T08:21:18;102058.66;;;6.29;100.00
57050;BME280;42935;50.966;16.992;2022-11-03T08:24:28;102061.96;;;6.46;100.00
57050;BME280;42935;50.966;16.992;2022-11-03T08:28:06;102048.70;;;6.65;100.00
57050;BME280;42935;50.966;16.992;2022-11-03T08:31:13;102047.36;;;6.87;100.00
57050;BME280;42935;50.966;16.992;2022-11-03T08:34:27;102041.38;;;6.99;100.00
57050;BME280;42935;50.966;16.992;2022-11-03T08:37:45;102029.05;;;7.07;100.00
57050;BME280;42935;50.966;16.992;2022-11-03T08:41:24;102024.13;;;7.38;100.00
57050;BME280;42935;50.966;16.992;2022-11-03T08:44:37;102012.65;;;7.62;100.00
57050;BME280;42935;50.966;16.992;2022-11-03T08:48:22;102010.07;;;7.82;100.00
57050;BME280;42935;50.966;16.992;2022-11-03T08:52:04;102004.69;;;8.00;100.00
57050;BME280;42935;50.966;16.992;2022-11-03T08:55:09;101993.88;;;8.15;100.00
57050;BME280;42935;50.966;16.992;2022-11-03T08:58:48;101984.55;;;8.44;100.00
57050;BME280;42935;50.966;16.992;2022-11-03T09:02:28;101969.41;;;8.71;100.00
57050;BME280;42935;50.966;16.992;2022-11-03T09:05:40;101929.13;;;8.67;100.00
57050;BME280;42935;50.966;16.992;2022-11-03T09:08:52;101967.51;;;9.16;100.00
57050;BME280;42935;50.966;16.992;2022-11-03T09:12:32;101960.93;;;9.26;100.00
57050;BME280;42935;50.966;16.992;2022-11-03T09:16:11;101968.14;;;9.40;100.00
57050;BME280;42935;50.966;16.992;2022-11-03T09:19:50;101963.68;;;9.49;100.00
57050;BME280;42935;50.966;16.992;2022-11-03T09:23:01;101959.26;;;9.49;100.00
57050;BME280;42935;50.966;16.992;2022-11-03T09:26:42;101952.70;;;9.50;100.00
57050;BME280;42935;50.966;16.992;2022-11-03T09:29:50;101943.66;;;9.66;100.00
57050;BME280;42935;50.966;16.992;2022-11-03T09:33:27;101932.92;;;9.80;100.00
57050;BME280;42935;50.966;16.992;2022-11-03T09:36:37;101924.22;;;9.86;100.00
57050;BME280;42935;50.966;16.992;2022-11-03T09:39:45;101920.30;;;9.89;100.00
57050;BME280;42935;50.966;16.992;2022-11-03T09:43:26;101919.95;;;9.84;100.00
57050;BME280;42935;50.966;16.992;2022-11-03T09:47:06;101922.34;;;9.98;100.00
57050;BME280;42935;50.966;16.992;2022-11-03T09:50:52;101921.18;;;9.93;100.00
57050;BME280;42935;50.966;16.992;2022-11-03T09:54:03;101920.48;;;9.94;100.00
57050;BME280;42935;50.966;16.992;2022-11-03T09:57:46;101916.95;;;10.01;100.00
57050;BME280;42935;50.966;16.992;2022-11-03T10:01:25;101913.82;;;10.14;100.00
57050;BME280;42935;50.966;16.992;2022-11-03T10:04:30;101911.34;;;10.14;100.00
57050;BME280;42935;50.966;16.992;2022-11-03T10:12:01;101898.14;;;10.39;100.00
57050;BME280;42935;50.966;16.992;2022-11-03T10:15:41;101891.81;;;10.48;100.00
57050;BME280;42935;50.966;16.992;2022-11-03T10:19:23;101880.81;;;10.56;100.00
57050;BME280;42935;50.966;16.992;2022-11-03T10:23:08;101876.03;;;10.63;100.00
57050;BME280;42935;50.966;16.992;2022-11-03T10:26:50;101851.47;;;10.68;100.00
57050;BME280;42935;50.966;16.992;2022-11-03T10:30:10;101849.12;;;10.79;100.00
57050;BME280;42935;50.966;16.992;2022-11-03T10:33:52;101848.61;;;10.86;100.00
57050;BME280;42935;50.966;16.992;2022-11-03T10:37:31;101830.31;;;10.77;99.84
57050;BME280;42935;50.966;16.992;2022-11-03T10:41:23;101843.85;;;10.88;100.00
57050;BME280;42935;50.966;16.992;2022-11-03T10:45:15;101835.85;;;10.89;100.00
57050;BME280;42935;50.966;16.992;2022-11-03T10:52:19;101826.55;;;10.88;100.00
57050;BME280;42935;50.966;16.992;2022-11-03T10:55:28;101822.95;;;10.65;100.00
57050;BME280;42935;50.966;16.992;2022-11-03T10:58:38;101818.05;;;10.87;100.00
57050;BME280;42935;50.966;16.992;2022-11-03T11:02:23;101802.98;;;11.27;97.98
57050;BME280;42935;50.966;16.992;2022-11-03T11:05:45;101785.20;;;11.54;93.79
57050;BME280;42935;50.966;16.992;2022-11-03T11:09:02;101786.66;;;11.75;90.11
57050;BME280;42935;50.966;16.992;2022-11-03T11:12:22;101749.92;;;11.71;88.63
57050;BME280;42935;50.966;16.992;2022-11-03T11:15:41;101773.10;;;11.88;88.71
57050;BME280;42935;50.966;16.992;2022-11-03T11:19:24;101764.94;;;12.01;86.37
57050;BME280;42935;50.966;16.992;2022-11-03T11:26:54;101755.59;;;12.35;84.71
57050;BME280;42935;50.966;16.992;2022-11-03T11:30:06;101720.65;;;12.17;82.06
57050;BME280;42935;50.966;16.992;2022-11-03T11:37:38;101729.95;;;12.47;81.86
57050;BME280;42935;50.966;16.992;2022-11-03T11:41:18;101723.80;;;12.73;82.72
57050;BME280;42935;50.966;16.992;2022-11-03T11:44:59;101721.01;;;12.75;77.70
57050;BME280;42935;50.966;16.992;2022-11-03T11:48:41;101719.16;;;13.05;78.70
57050;BME280;42935;50.966;16.992;2022-11-03T11:51:47;101702.74;;;13.30;79.35
57050;BME280;42935;50.966;16.992;2022-11-03T11:54:57;101696.51;;;13.18;78.33
57050;BME280;42935;50.966;16.992;2022-11-03T11:58:44;101681.65;;;13.02;78.68
57050;BME280;42935;50.966;16.992;2022-11-03T12:02:28;101673.76;;;13.19;77.83
57050;BME280;42935;50.966;16.992;2022-11-03T12:05:35;101673.73;;;13.31;77.08
57050;BME280;42935;50.966;16.992;2022-11-03T12:08:41;101658.70;;;13.19;77.73
57050;BME280;42935;50.966;16.992;2022-11-03T12:30:35;101611.09;;;11.71;88.38
57050;BME280;42935;50.966;16.992;2022-11-03T12:34:15;101637.49;;;11.68;91.32
57050;BME280;42935;50.966;16.992;2022-11-03T12:37:21;101636.84;;;11.50;95.67
57050;BME280;42935;50.966;16.992;2022-11-03T12:40:59;101630.34;;;11.68;95.42
57050;BME280;42935;50.966;16.992;2022-11-03T12:44:47;101614.27;;;11.56;98.90
57050;BME280;42935;50.966;16.992;2022-11-03T12:48:29;101613.18;;;12.11;99.55
57050;BME280;42935;50.966;16.992;2022-11-03T12:52:09;101605.66;;;12.67;95.33
57050;BME280;42935;50.966;16.992;2022-11-03T12:55:18;101599.48;;;13.01;90.08
57050;BME280;42935;50.966;16.992;2022-11-03T12:58:59;101600.67;;;13.36;87.22
57050;BME280;42935;50.966;16.992;2022-11-03T13:02:37;101586.06;;;13.57;83.94
57050;BME280;42935;50.966;16.992;2022-11-03T13:06:18;101589.70;;;13.62;81.38
57050;BME280;42935;50.966;16.992;2022-11-03T13:09:58;101591.20;;;13.28;82.40
57050;BME280;42935;50.966;16.992;2022-11-03T13:13:36;101582.48;;;13.81;81.98
57050;BME280;42935;50.966;16.992;2022-11-03T13:16:47;101570.14;;;13.57;78.33
57050;BME280;42935;50.966;16.992;2022-11-03T13:20:25;101569.27;;;13.50;80.02
57050;BME280;42935;50.966;16.992;2022-11-03T13:24:04;101562.30;;;13.60;78.94
57050;BME280;42935;50.966;16.992;2022-11-03T13:27:45;101559.05;;;13.68;78.13
57050;BME280;42935;50.966;16.992;2022-11-03T13:31:09;101549.94;;;13.48;77.63
57050;BME280;42935;50.966;16.992;2022-11-03T13:34:50;101544.12;;;13.16;80.50
57050;BME280;42935;50.966;16.992;2022-11-03T13:38:27;101537.66;;;12.64;86.31
57050;BME280;42935;50.966;16.992;2022-11-03T13:42:07;101524.14;;;12.38;90.15
57050;BME280;42935;50.966;16.992;2022-11-03T13:45:49;101515.81;;;12.29;90.29
57050;BME280;42935;50.966;16.992;2022-11-03T13:49:31;101511.78;;;12.35;89.38
57050;BME280;42935;50.966;16.992;2022-11-03T13:52:39;101503.36;;;12.18;91.04
57050;BME280;42935;50.966;16.992;2022-11-03T13:56:17;101498.23;;;12.15;92.22
57050;BME280;42935;50.966;16.992;2022-11-03T13:59:27;101501.30;;;11.92;92.91
57050;BME280;42935;50.966;16.992;2022-11-03T14:03:13;101500.35;;;11.72;94.97
57050;BME280;42935;50.966;16.992;2022-11-03T14:06:56;101490.13;;;11.83;94.72
57050;BME280;42935;50.966;16.992;2022-11-03T14:10:07;101486.88;;;11.87;94.68
57050;BME280;42935;50.966;16.992;2022-11-03T14:13:15;101472.40;;;11.60;99.20
57050;BME280;42935;50.966;16.992;2022-11-03T14:16:55;101466.92;;;11.57;100.00
57050;BME280;42935;50.966;16.992;2022-11-03T14:20:10;101476.85;;;11.49;100.00
57050;BME280;42935;50.966;16.992;2022-11-03T14:23:48;101464.98;;;11.51;100.00
57050;BME280;42935;50.966;16.992;2022-11-03T14:26:58;101479.73;;;11.61;100.00
57050;BME280;42935;50.966;16.992;2022-11-03T14:30:40;101480.19;;;11.48;100.00
57050;BME280;42935;50.966;16.992;2022-11-03T14:33:50;101473.73;;;11.38;100.00
57050;BME280;42935;50.966;16.992;2022-11-03T14:37:34;101472.48;;;11.23;100.00
57050;BME280;42935;50.966;16.992;2022-11-03T14:41:14;101469.08;;;11.20;100.00
57050;BME280;42935;50.966;16.992;2022-11-03T14:44:36;101460.05;;;11.12;100.00
57050;BME280;42935;50.966;16.992;2022-11-03T14:48:17;101447.25;;;10.91;100.00
57050;BME280;42935;50.966;16.992;2022-11-03T14:51:54;101450.33;;;10.73;100.00
57050;BME280;42935;50.966;16.992;2022-11-03T14:55:05;101452.41;;;10.71;100.00
57050;BME280;42935;50.966;16.992;2022-11-03T14:58:15;101450.11;;;10.70;100.00
57050;BME280;42935;50.966;16.992;2022-11-03T15:01:56;101445.16;;;10.52;100.00
57050;BME280;42935;50.966;16.992;2022-11-03T15:05:36;101443.63;;;10.47;100.00
57050;BME280;42935;50.966;16.992;2022-11-03T15:08:51;101438.67;;;10.38;100.00
57050;BME280;42935;50.966;16.992;2022-11-03T15:12:31;101435.34;;;10.14;100.00
57050;BME280;42935;50.966;16.992;2022-11-03T15:15:41;101427.75;;;9.95;100.00
57050;BME280;42935;50.966;16.992;2022-11-03T15:19:19;101422.48;;;9.75;100.00
57050;BME280;42935;50.966;16.992;2022-11-03T15:23:04;101416.29;;;9.63;100.00
57050;BME280;42935;50.966;16.992;2022-11-03T15:26:48;101413.12;;;9.43;100.00
57050;BME280;42935;50.966;16.992;2022-11-03T15:30:28;101405.02;;;9.37;100.00
57050;BME280;42935;50.966;16.992;2022-11-03T15:34:09;101396.16;;;9.32;100.00
57050;BME280;42935;50.966;16.992;2022-11-03T15:37:17;101394.70;;;9.19;100.00
57050;BME280;42935;50.966;16.992;2022-11-03T15:41:01;101380.89;;;8.94;100.00
57050;BME280;42935;50.966;16.992;2022-11-03T15:44:56;101383.14;;;8.93;100.00
57050;BME280;42935;50.966;16.992;2022-11-03T15:48:41;101369.49;;;8.90;100.00
57050;BME280;42935;50.966;16.992;2022-11-03T15:52:29;101316.40;;;8.69;100.00
57050;BME280;42935;50.966;16.992;2022-11-03T15:56:13;101356.41;;;8.98;100.00
57050;BME280;42935;50.966;16.992;2022-11-03T15:59:51;101344.55;;;8.85;100.00
57050;BME280;42935;50.966;16.992;2022-11-03T16:03:30;101344.49;;;8.67;100.00
57050;BME280;42935;50.966;16.992;2022-11-03T16:07:13;101337.68;;;8.57;100.00
57050;BME280;42935;50.966;16.992;2022-11-03T16:10:52;101340.29;;;8.60;100.00
57050;BME280;42935;50.966;16.992;2022-11-03T16:14:40;101338.23;;;8.45;100.00
57050;BME280;42935;50.966;16.992;2022-11-03T16:18:24;101331.03;;;8.42;100.00
57050;BME280;42935;50.966;16.992;2022-11-03T16:21:42;101325.85;;;8.38;100.00
57050;BME280;42935;50.966;16.992;2022-11-03T16:25:21;101316.16;;;8.26;100.00
57050;BME280;42935;50.966;16.992;2022-11-03T16:28:35;101322.28;;;8.31;100.00
57050;BME280;42935;50.966;16.992;2022-11-03T16:32:19;101322.10;;;8.34;100.00
57050;BME280;42935;50.966;16.992;2022-11-03T16:36:01;101325.51;;;8.37;100.00
57050;BME280;42935;50.966;16.992;2022-11-03T16:39:21;101312.16;;;8.33;100.00
57050;BME280;42935;50.966;16.992;2022-11-03T16:43:05;101326.95;;;8.45;100.00
57050;BME280;42935;50.966;16.992;2022-11-03T16:46:51;101316.33;;;8.22;100.00
57050;BME280;42935;50.966;16.992;2022-11-03T16:50:32;101322.63;;;8.21;100.00
57050;BME280;42935;50.966;16.992;2022-11-03T16:54:15;101310.58;;;8.45;100.00
57050;BME280;42935;50.966;16.992;2022-11-03T16:57:27;101294.44;;;8.18;100.00
57050;BME280;42935;50.966;16.992;2022-11-03T17:01:10;101281.59;;;8.03;100.00
57050;BME280;42935;50.966;16.992;2022-11-03T17:04:56;101277.71;;;8.08;100.00
57050;BME280;42935;50.966;16.992;2022-11-03T17:08:35;101271.41;;;8.15;100.00
57050;BME280;42935;50.966;16.992;2022-11-03T17:12:18;101255.49;;;8.11;100.00
57050;BME280;42935;50.966;16.992;2022-11-03T17:15:57;101263.73;;;8.09;100.00
57050;BME280;42935;50.966;16.992;2022-11-03T17:19:37;101257.49;;;8.12;100.00
57050;BME280;42935;50.966;16.992;2022-11-03T17:22:50;101259.22;;;8.01;100.00
57050;BME280;42935;50.966;16.992;2022-11-03T17:26:37;101249.31;;;7.97;100.00
57050;BME280;42935;50.966;16.992;2022-11-03T17:33:08;101248.38;;;8.01;100.00
57050;BME280;42935;50.966;16.992;2022-11-03T17:36:20;101244.16;;;8.01;100.00
57050;BME280;42935;50.966;16.992;2022-11-03T17:44:11;101237.57;;;7.65;100.00
57050;BME280;42935;50.966;16.992;2022-11-03T17:47:25;101226.26;;;7.42;100.00
57050;BME280;42935;50.966;16.992;2022-11-03T17:51:08;101222.66;;;7.39;100.00
57050;BME280;42935;50.966;16.992;2022-11-03T17:54:58;101223.16;;;7.33;100.00
57050;BME280;42935;50.966;16.992;2022-11-03T17:58:37;101221.09;;;7.27;100.00
57050;BME280;42935;50.966;16.992;2022-11-03T18:02:19;101200.50;;;7.28;100.00
57050;BME280;42935;50.966;16.992;2022-11-03T18:05:36;101194.91;;;7.37;100.00
57050;BME280;42935;50.966;16.992;2022-11-03T18:09:21;101186.67;;;7.37;100.00
57050;BME280;42935;50.966;16.992;2022-11-03T18:13:11;101182.69;;;7.50;100.00
57050;BME280;42935;50.966;16.992;2022-11-03T18:16:29;101179.46;;;7.63;100.00
57050;BME280;42935;50.966;16.992;2022-11-03T18:20:21;101174.08;;;7.66;100.00
57050;BME280;42935;50.966;16.992;2022-11-03T18:24:11;101163.32;;;7.69;100.00
57050;BME280;42935;50.966;16.992;2022-11-03T18:27:55;101151.42;;;7.68;100.00
57050;BME280;42935;50.966;16.992;2022-11-03T18:31:43;101148.99;;;7.68;100.00
57050;BME280;42935;50.966;16.992;2022-11-03T18:35:28;101143.64;;;7.74;100.00
57050;BME280;42935;50.966;16.992;2022-11-03T18:38:41;101137.47;;;7.66;100.00
57050;BME280;42935;50.966;16.992;2022-11-03T18:42:23;101131.44;;;7.69;100.00
57050;BME280;42935;50.966;16.992;2022-11-03T18:46:03;101128.52;;;7.65;100.00
57050;BME280;42935;50.966;16.992;2022-11-03T18:49:41;101113.82;;;7.44;100.00
57050;BME280;42935;50.966;16.992;2022-11-03T18:53:25;101108.84;;;7.32;100.00
57050;BME280;42935;50.966;16.992;2022-11-03T18:57:09;101105.28;;;7.28;100.00
57050;BME280;42935;50.966;16.992;2022-11-03T19:00:51;101095.78;;;7.31;100.00
57050;BME280;42935;50.966;16.992;2022-11-03T19:04:34;101096.28;;;7.30;100.00
57050;BME280;42935;50.966;16.992;2022-11-03T19:07:46;101088.45;;;7.42;100.00
57050;BME280;42935;50.966;16.992;2022-11-03T19:11:30;101081.70;;;7.29;100.00
57050;BME280;42935;50.966;16.992;2022-11-03T19:15:20;101067.88;;;7.31;100.00
57050;BME280;42935;50.966;16.992;2022-11-03T19:19:04;101051.28;;;7.32;100.00
57050;BME280;42935;50.966;16.992;2022-11-03T19:22:21;101055.51;;;7.48;100.00
57050;BME280;42935;50.966;16.992;2022-11-03T19:26:07;101031.84;;;7.39;100.00
57050;BME280;42935;50.966;16.992;2022-11-03T19:29:58;101044.15;;;7.50;100.00
57050;BME280;42935;50.966;16.992;2022-11-03T19:33:44;101036.01;;;7.52;100.00
57050;BME280;42935;50.966;16.992;2022-11-03T19:37:31;101037.54;;;7.58;100.00